^^
Station Historical Data
 
Daily Summary for August 22, 2019 Units:  English    Metric   Both
Daily Weekly Monthly Yearly Custom
  Current: High: Low: Average:
Temperature: 69.4 °F 70.9 °F 0.00 °F 67.9 °F
Dew Point: 68 °F 69.1 °F 0.00 °F 66.2 °F
Humidity: 95% 95% % 91%
Wind Speed: 0mph 4.3mph 0mph 1.1mph
Wind Gust: 0mph 9mph - -
WindCalm - - SE
Pressure: 29.89 in 29.92 in 29.88 in -
Precipitation: 0.06 in      
Historical Graphs
 
 
Tabular Data for August 22, 2019
Time Temperature Dew Point Pressure Wind Wind Speed Wind Gust Humidity Rainfall Rate (Hourly) solar
00:01 70.9 °F 69.1 °F 29.88 in Calm   1 mph 94% 0 in meteobridge W/m2
00:06 70.9 °F 69.1 °F 29.89 in Calm   2 mph 94% 0 in meteobridge W/m2
00:11 70.9 °F 69.1 °F 29.88 in Calm   -999 mph 94% 0 in meteobridge W/m2
00:16 70.7 °F 68.9 °F 29.89 in ENE 2 mph 3 mph 94% 0 in meteobridge W/m2
00:21 70.5 °F 68.7 °F 29.89 in East 1.1 mph -999 mph 94% 0 in meteobridge W/m2
00:26 70.5 °F 68.7 °F 29.89 in East 1.1 mph -999 mph 94% 0 in meteobridge W/m2
00:31 0.00 °F 0.00 °F 29.90 in Calm   -999 mph % 0 in meteobridge W/m2
00:36 70.5 °F 68.7 °F 29.90 in Calm   1 mph 94% 0 in meteobridge W/m2
00:41 70.3 °F 68.2 °F 29.89 in East 3.1 mph 4 mph 93% 0 in meteobridge W/m2
00:46 70.3 °F 68.2 °F 29.88 in NE 2 mph 4 mph 93% 0 in meteobridge W/m2
00:51 70.3 °F 68.2 °F 29.89 in ENE 3.1 mph 4 mph 93% 0 in meteobridge W/m2
00:56 70.2 °F 68 °F 29.89 in Calm   6 mph 93% 0 in meteobridge W/m2
01:01 70.2 °F 68 °F 29.90 in ENE 1.1 mph 3 mph 93% 0 in meteobridge W/m2
01:06 70.2 °F 68 °F 29.90 in Calm   2 mph 93% 0 in meteobridge W/m2
01:11 70.2 °F 68.4 °F 29.92 in West 4.3 mph 9 mph 94% 0 in meteobridge W/m2
01:16 70.2 °F 68.4 °F 29.92 in West 4.3 mph 6 mph 94% 0 in meteobridge W/m2
01:21 70.2 °F 68.4 °F 29.91 in SSE 3.1 mph 6 mph 94% 0.01 in meteobridge W/m2
01:26 70 °F 68.2 °F 29.90 in Calm   2 mph 94% 0.02 in meteobridge W/m2
01:31 70 °F 68.2 °F 29.90 in SE 2 mph 3 mph 94% 0.02 in meteobridge W/m2
01:36 70 °F 68.2 °F 29.90 in Calm   3 mph 94% 0.02 in meteobridge W/m2
01:41 70 °F 68.2 °F 29.91 in South 2 mph 2 mph 94% 0.02 in meteobridge W/m2
01:46 70 °F 68.2 °F 29.90 in South 3.1 mph -999 mph 94% 0.02 in meteobridge W/m2
01:51 69.8 °F 68 °F 29.89 in East 1.1 mph 3 mph 94% 0.03 in meteobridge W/m2
01:56 69.8 °F 68 °F 29.89 in Calm   2 mph 94% 0.03 in meteobridge W/m2
02:01 69.8 °F 68 °F 29.89 in Calm   1 mph 94% 0.04 in meteobridge W/m2
02:06 69.6 °F 68.2 °F 29.89 in Calm   2 mph 95% 0.04 in meteobridge W/m2
02:11 69.6 °F 68.2 °F 29.90 in Calm   2 mph 95% 0.05 in meteobridge W/m2
02:16 69.4 °F 68 °F 29.91 in South 2 mph 4 mph 95% 0.05 in meteobridge W/m2
02:21 69.4 °F 68 °F 29.91 in Calm   1 mph 95% 0.04 in meteobridge W/m2
02:26 69.4 °F 68 °F 29.90 in Calm     95% 0.03 in meteobridge W/m2
02:31 69.4 °F 68 °F 29.88 in Calm     95% 0.04 in meteobridge W/m2
02:36 69.4 °F 68 °F 29.89 in Calm     95% 0.04 in meteobridge W/m2
Louisburg, Kansas, USA
Compliments of Weather Underground - 4 mb